Time;durP1;ratioP1;P1;durP2;ratioP2;P2;SDS_P1;SDS_P2;PMS_P1;PMS_P2;Temp;Humidity;BMP_temperature;BMP_pressure;BME280_temperature;BME280_humidity;BME280_pressure;Samples;Min_cycle;Max_cycle;Signal;HPM_P1;HPM_P2
2023/06/14 00:01:45;;;;;;;9.82;3.42;;;18.20;58.50;;;;;;5046744;28;20056;-53
2023/06/14 00:04:12;;;;;;;11.85;2.78;;;18.20;59.30;;;;;;5047137;28;20044;-54
2023/06/14 00:06:41;;;;;;;6.53;2.30;;;18.10;59.00;;;;;;5046757;28;20124;-56
2023/06/14 00:09:08;;;;;;;8.18;2.80;;;18.00;59.10;;;;;;5047052;28;20102;-55
2023/06/14 00:11:35;;;;;;;10.55;3.47;;;17.90;59.40;;;;;;5046548;28;20041;-54
2023/06/14 00:14:03;;;;;;;8.60;3.28;;;17.80;60.00;;;;;;5046752;28;20045;-53
2023/06/14 00:16:30;;;;;;;9.13;3.88;;;17.70;59.90;;;;;;5046609;28;20060;-55
2023/06/14 00:18:57;;;;;;;6.05;2.63;;;17.70;60.50;;;;;;5046758;28;20472;-55
2023/06/14 00:21:24;;;;;;;7.93;3.13;;;17.70;60.70;;;;;;5044747;28;20046;-54
2023/06/14 00:23:51;;;;;;;7.90;3.47;;;17.60;60.90;;;;;;5050387;28;20048;-56
2023/06/14 00:26:18;;;;;;;6.75;3.05;;;17.70;60.90;;;;;;5050191;28;20053;-53
2023/06/14 00:28:45;;;;;;;5.10;2.28;;;17.60;61.30;;;;;;5050230;28;20060;-54
2023/06/14 00:31:12;;;;;;;5.68;2.25;;;17.60;61.50;;;;;;5049155;28;20041;-55
2023/06/14 00:33:38;;;;;;;7.45;2.60;;;17.60;61.60;;;;;;5050577;28;20098;-51
2023/06/14 00:36:05;;;;;;;8.35;2.60;;;17.50;61.30;;;;;;4696356;28;10000428;-56
2023/06/14 00:38:32;;;;;;;7.65;2.42;;;17.50;61.50;;;;;;5043755;28;20161;-50
2023/06/14 00:40:59;;;;;;;8.15;2.80;;;17.40;62.00;;;;;;5049878;28;20045;-55
2023/06/14 00:43:26;;;;;;;3.25;2.13;;;17.40;61.80;;;;;;5049877;28;20045;-53
2023/06/14 00:45:53;;;;;;;4.47;2.50;;;17.40;61.90;;;;;;5049925;28;20045;-50
2023/06/14 00:48:20;;;;;;;5.90;3.13;;;17.30;62.00;;;;;;5050254;28;20071;-50
2023/06/14 00:50:48;;;;;;;10.07;2.47;;;17.30;62.30;;;;;;5032492;28;20045;-53
2023/06/14 00:53:17;;;;;;;5.47;2.30;;;17.20;62.20;;;;;;5048844;28;20060;-55
2023/06/14 00:55:44;;;;;;;5.10;2.25;;;17.20;62.70;;;;;;5048867;28;20041;-51
2023/06/14 00:58:11;;;;;;;5.55;2.25;;;17.10;62.60;;;;;;5049441;28;20076;-55
2023/06/14 01:00:38;;;;;;;9.25;2.55;;;17.10;63.00;;;;;;5037970;28;20053;-50
2023/06/14 01:03:04;;;;;;;6.03;2.70;;;17.00;63.20;;;;;;5049923;28;20053;-48
2023/06/14 01:05:32;;;;;;;7.80;2.42;;;16.90;63.70;;;;;;5050040;28;20049;-55
2023/06/14 01:08:02;;;;;;;6.28;2.50;;;16.90;64.10;;;;;;5049024;28;20045;-51
2023/06/14 01:10:36;;;;;;;5.82;2.45;;;16.80;64.50;;;;;;5049578;28;20053;-52
2023/06/14 01:13:06;;;;;;;7.25;2.80;;;16.80;65.20;;;;;;5048184;28;20079;-51
2023/06/14 01:15:33;;;;;;;7.80;2.83;;;16.80;65.20;;;;;;5049791;28;20048;-51
2023/06/14 01:18:02;;;;;;;6.53;2.20;;;16.60;65.40;;;;;;5031364;28;20052;-49
2023/06/14 01:20:32;;;;;;;5.97;2.40;;;16.40;65.90;;;;;;5049389;28;20072;-53
2023/06/14 01:22:59;;;;;;;10.43;2.90;;;16.20;66.60;;;;;;5048004;28;20048;-52
2023/06/14 01:25:26;;;;;;;5.10;2.88;;;16.00;66.90;;;;;;5049388;28;20360;-52
2023/06/14 01:28:04;;;;;;;4.90;2.15;;;16.10;67.40;;;;;;5048823;28;20048;-49
2023/06/14 01:30:30;;;;;;;3.58;2.08;;;16.10;68.50;;;;;;5049129;28;20136;-52
2023/06/14 01:32:57;;;;;;;9.30;2.60;;;16.10;69.00;;;;;;5030569;28;20072;-51
2023/06/14 01:35:25;;;;;;;9.95;2.80;;;16.10;69.70;;;;;;5048028;28;20053;-50
2023/06/14 01:37:52;;;;;;;9.55;2.70;;;16.20;70.30;;;;;;5031160;28;20076;-55
2023/06/14 01:40:19;;;;;;;7.25;2.13;;;16.20;70.80;;;;;;5047262;28;20052;-56
2023/06/14 01:42:47;;;;;;;7.88;2.35;;;16.10;71.30;;;;;;5010304;28;20060;-55
2023/06/14 01:45:13;;;;;;;5.53;2.22;;;16.00;72.30;;;;;;5028394;28;20516;-51
2023/06/14 01:47:40;;;;;;;9.98;2.42;;;15.90;73.10;;;;;;5021164;28;20046;-49
2023/06/14 01:50:07;;;;;;;6.45;2.38;;;15.80;74.20;;;;;;5043224;28;20446;-52
2023/06/14 01:52:34;;;;;;;9.98;2.88;;;15.80;75.40;;;;;;5041974;28;20484;-51
2023/06/14 01:55:01;;;;;;;8.93;3.22;;;15.80;76.40;;;;;;5043684;28;20048;-51
2023/06/14 01:57:29;;;;;;;7.57;2.40;;;15.90;77.40;;;;;;5039205;28;20074;-54
2023/06/14 01:59:56;;;;;;;9.18;3.00;;;15.90;78.40;;;;;;5041364;28;20736;-51
2023/06/14 02:02:23;;;;;;;8.73;2.70;;;15.80;79.70;;;;;;5041133;28;20049;-55
2023/06/14 02:04:49;;;;;;;9.48;2.22;;;15.70;80.50;;;;;;5043364;28;20049;-53
2023/06/14 02:07:16;;;;;;;6.88;2.08;;;15.70;81.90;;;;;;5047277;28;20072;-56
2023/06/14 02:09:43;;;;;;;13.63;2.85;;;15.70;82.90;;;;;;5045854;28;20037;-54
2023/06/14 02:12:11;;;;;;;7.47;2.58;;;15.70;84.10;;;;;;5047174;28;20048;-50
2023/06/14 02:14:38;;;;;;;9.18;2.70;;;15.60;85.50;;;;;;5048078;28;20135;-54
2023/06/14 02:17:06;;;;;;;6.80;2.58;;;15.60;86.80;;;;;;5047832;28;20415;-50
2023/06/14 02:19:33;;;;;;;8.38;3.28;;;15.60;88.10;;;;;;5047888;28;20071;-54
2023/06/14 02:22:00;;;;;;;7.53;2.70;;;15.60;89.70;;;;;;5047601;28;20041;-54
2023/06/14 02:24:27;;;;;;;9.60;2.83;;;15.60;90.50;;;;;;5048113;28;20457;-52
2023/06/14 02:26:54;;;;;;;9.05;3.25;;;15.60;91.20;;;;;;5047543;28;20488;-52
2023/06/14 02:29:20;;;;;;;7.72;2.75;;;15.60;92.00;;;;;;5048381;28;20447;-48
2023/06/14 02:31:48;;;;;;;9.95;2.58;;;15.50;92.90;;;;;;5047464;28;20555;-50
2023/06/14 02:34:17;;;;;;;11.00;2.40;;;15.50;93.80;;;;;;5048034;28;20052;-52
2023/06/14 02:36:44;;;;;;;5.63;2.40;;;15.50;94.60;;;;;;5030092;28;20049;-53
2023/06/14 02:39:11;;;;;;;8.85;3.15;;;15.40;95.50;;;;;;5046600;28;20511;-50
2023/06/14 02:41:38;;;;;;;7.53;2.35;;;15.30;96.90;;;;;;5046982;28;20426;-50
2023/06/14 02:44:05;;;;;;;9.15;2.85;;;15.20;98.50;;;;;;5035025;28;20045;-48
2023/06/14 02:46:32;;;;;;;6.40;2.75;;;15.10;99.00;;;;;;5047936;28;20045;-52
2023/06/14 02:48:59;;;;;;;10.82;2.88;;;15.10;99.90;;;;;;5047708;28;20056;-52
2023/06/14 02:51:26;;;;;;;6.57;2.75;;;15.10;99.90;;;;;;5047260;28;20055;-53
2023/06/14 02:53:53;;;;;;;7.80;2.60;;;15.20;99.90;;;;;;5047630;28;20520;-52
2023/06/14 02:56:22;;;;;;;12.18;2.80;;;15.20;99.90;;;;;;5047735;28;20056;-53
2023/06/14 02:58:50;;;;;;;8.82;3.33;;;15.10;99.90;;;;;;5047098;28;20130;-51
2023/06/14 03:01:17;;;;;;;10.02;2.78;;;15.20;99.90;;;;;;5046705;28;20045;-52
2023/06/14 03:03:44;;;;;;;9.50;3.60;;;15.00;99.90;;;;;;5046890;28;20051;-49
2023/06/14 03:06:13;;;;;;;8.63;3.30;;;15.00;99.90;;;;;;5047443;28;20048;-51
2023/06/14 03:08:41;;;;;;;9.18;2.85;;;15.00;99.90;;;;;;5047277;28;20048;-52
2023/06/14 03:11:11;;;;;;;6.45;3.45;;;15.00;99.90;;;;;;5046202;28;20042;-53
2023/06/14 03:13:38;;;;;;;10.25;3.40;;;15.00;99.90;;;;;;5047471;28;20566;-56
2023/06/14 03:16:07;;;;;;;12.23;3.95;;;15.00;99.90;;;;;;5047357;28;20121;-52
2023/06/14 03:18:35;;;;;;;17.38;4.45;;;15.00;99.90;;;;;;5047267;28;20052;-52
2023/06/14 03:21:03;;;;;;;11.07;3.03;;;15.00;99.90;;;;;;5046741;28;20091;-57
2023/06/14 03:23:30;;;;;;;17.98;5.13;;;14.90;99.90;;;;;;5047508;28;20255;-55
2023/06/14 03:25:57;;;;;;;12.23;3.10;;;14.80;99.90;;;;;;5046068;28;20057;-54
2023/06/14 03:28:23;;;;;;;10.20;3.20;;;14.80;99.90;;;;;;5046972;28;20416;-52
2023/06/14 03:30:51;;;;;;;10.15;3.08;;;14.80;99.90;;;;;;5046651;28;20056;-55
2023/06/14 03:33:18;;;;;;;10.60;2.88;;;14.80;99.90;;;;;;5047253;28;20057;-53
2023/06/14 03:35:45;;;;;;;7.35;3.20;;;14.80;99.90;;;;;;5047756;28;20045;-55
2023/06/14 03:38:12;;;;;;;14.60;4.00;;;14.80;99.90;;;;;;5046622;28;20052;-52
2023/06/14 03:40:39;;;;;;;7.88;3.03;;;14.80;99.90;;;;;;5029321;28;20052;-53
2023/06/14 03:43:06;;;;;;;6.78;2.28;;;14.70;99.90;;;;;;5046451;28;20047;-54
2023/06/14 03:45:33;;;;;;;8.90;3.53;;;14.60;99.90;;;;;;5045940;28;20512;-55
2023/06/14 03:48:00;;;;;;;15.95;3.38;;;14.60;99.90;;;;;;5046833;28;20087;-55
2023/06/14 03:50:28;;;;;;;12.38;3.72;;;14.60;99.90;;;;;;5046303;28;20045;-55
2023/06/14 03:52:54;;;;;;;11.13;3.45;;;14.60;99.90;;;;;;5046407;28;20069;-54
2023/06/14 03:55:21;;;;;;;8.40;2.55;;;14.60;99.90;;;;;;5047334;28;20057;-53
2023/06/14 03:58:08;;;;;;;8.65;2.70;;;14.50;99.90;;;;;;5038529;28;20543;-53
2023/06/14 04:00:35;;;;;;;6.43;2.95;;;14.40;99.90;;;;;;5050029;28;20041;-51
2023/06/14 04:03:04;;;;;;;10.13;3.03;;;14.40;99.90;;;;;;5049103;28;20045;-51
2023/06/14 04:05:31;;;;;;;10.60;3.35;;;14.30;99.90;;;;;;5048059;28;20393;-52
2023/06/14 04:07:58;;;;;;;8.82;4.30;;;14.50;99.90;;;;;;5041304;28;20300;-51
2023/06/14 04:10:25;;;;;;;14.77;3.83;;;14.30;99.90;;;;;;5049073;28;20102;-55
2023/06/14 04:12:52;;;;;;;9.80;3.42;;;14.20;99.90;;;;;;5049731;28;20044;-52
2023/06/14 04:15:19;;;;;;;8.38;3.35;;;14.30;99.90;;;;;;5045527;28;20051;-53
2023/06/14 04:17:48;;;;;;;12.63;4.05;;;14.40;99.90;;;;;;5050300;28;20049;-55
2023/06/14 04:20:15;;;;;;;13.10;3.28;;;14.50;99.90;;;;;;5049530;28;20048;-54
2023/06/14 04:22:43;;;;;;;20.80;4.68;;;14.50;99.90;;;;;;5050546;28;20514;-55
2023/06/14 04:25:10;;;;;;;15.98;3.95;;;14.50;99.90;;;;;;5049809;28;20492;-55
2023/06/14 04:27:37;;;;;;;11.60;3.75;;;14.50;99.90;;;;;;5050389;28;20254;-55
2023/06/14 04:30:05;;;;;;;9.63;3.53;;;14.60;99.90;;;;;;5047967;28;20045;-50
2023/06/14 04:32:33;;;;;;;17.23;3.75;;;14.60;99.90;;;;;;5050587;28;20512;-53
2023/06/14 04:35:03;;;;;;;9.07;3.67;;;14.60;99.90;;;;;;5049784;28;20101;-54
2023/06/14 04:37:30;;;;;;;13.82;4.40;;;14.70;99.90;;;;;;5050070;28;20526;-54
2023/06/14 04:39:58;;;;;;;10.40;3.45;;;14.70;99.90;;;;;;5049816;28;20048;-53
2023/06/14 04:42:25;;;;;;;11.40;3.83;;;14.70;99.90;;;;;;5049281;28;20503;-52
2023/06/14 04:44:55;;;;;;;13.43;4.05;;;14.70;99.90;;;;;;5046128;28;20076;-54
2023/06/14 04:47:24;;;;;;;12.35;3.55;;;14.70;99.90;;;;;;5048784;28;20102;-52
2023/06/14 04:49:52;;;;;;;10.43;3.83;;;14.70;99.90;;;;;;5049573;28;20037;-51
2023/06/14 04:52:20;;;;;;;8.38;3.47;;;14.80;99.90;;;;;;5049224;28;20523;-53
2023/06/14 04:54:48;;;;;;;11.13;4.10;;;14.80;99.90;;;;;;5049659;28;20439;-53
2023/06/14 04:57:17;;;;;;;14.15;4.43;;;14.80;99.90;;;;;;5049643;28;20049;-54
2023/06/14 04:59:44;;;;;;;11.15;3.85;;;14.90;99.90;;;;;;5049648;28;20045;-55
2023/06/14 05:02:11;;;;;;;9.95;4.20;;;14.90;99.90;;;;;;5048815;28;20067;-53
2023/06/14 05:04:39;;;;;;;10.82;3.53;;;14.90;99.90;;;;;;5031575;28;20052;-55
2023/06/14 05:07:10;;;;;;;11.43;4.55;;;15.00;99.90;;;;;;5049225;28;20052;-54
2023/06/14 05:09:37;;;;;;;17.42;3.95;;;14.90;99.90;;;;;;5049711;28;20049;-54
2023/06/14 05:12:04;;;;;;;13.98;3.42;;;15.00;99.90;;;;;;5047160;28;20052;-54
2023/06/14 05:14:31;;;;;;;12.95;3.63;;;15.00;99.90;;;;;;5049595;28;20041;-54
2023/06/14 05:16:58;;;;;;;10.52;3.78;;;15.00;99.90;;;;;;5048277;28;20060;-54
2023/06/14 05:19:25;;;;;;;18.58;4.38;;;15.10;99.90;;;;;;5049302;28;20231;-55
2023/06/14 05:21:52;;;;;;;12.20;4.03;;;15.10;99.90;;;;;;5048211;28;20048;-55
2023/06/14 05:24:19;;;;;;;16.23;4.70;;;15.10;99.90;;;;;;5031625;28;20528;-56
2023/06/14 05:26:46;;;;;;;20.02;4.00;;;15.20;99.90;;;;;;5048406;28;20559;-54
2023/06/14 05:29:13;;;;;;;9.57;3.78;;;15.20;99.90;;;;;;5047593;28;20420;-53
2023/06/14 05:31:40;;;;;;;13.35;3.97;;;15.30;99.90;;;;;;5045534;28;20408;-53
2023/06/14 05:34:07;;;;;;;16.52;4.60;;;15.30;99.90;;;;;;5049176;28;20053;-55
2023/06/14 05:36:34;;;;;;;12.82;3.80;;;15.40;99.90;;;;;;5048487;28;20124;-54
2023/06/14 05:39:02;;;;;;;13.65;5.38;;;15.40;99.90;;;;;;5047968;28;20492;-52
2023/06/14 05:41:29;;;;;;;12.48;4.28;;;15.40;99.90;;;;;;5048655;28;20134;-55
2023/06/14 05:43:56;;;;;;;14.68;5.85;;;15.50;99.90;;;;;;5048081;28;20053;-55
2023/06/14 05:46:25;;;;;;;18.63;5.20;;;15.50;99.90;;;;;;5048679;28;20527;-56
2023/06/14 05:48:52;;;;;;;13.07;3.88;;;15.50;99.90;;;;;;5048086;28;20496;-56
2023/06/14 05:51:19;;;;;;;18.10;4.40;;;15.50;99.90;;;;;;5014035;28;20045;-55
2023/06/14 05:53:46;;;;;;;13.23;3.97;;;15.50;99.90;;;;;;5030531;28;20044;-55
2023/06/14 05:56:14;;;;;;;10.25;4.47;;;15.60;99.90;;;;;;5046867;28;20405;-54
2023/06/14 05:58:41;;;;;;;15.60;4.75;;;15.60;99.90;;;;;;5047951;28;20415;-55
2023/06/14 06:01:08;;;;;;;16.63;4.15;;;15.70;99.90;;;;;;5047999;28;20469;-53
2023/06/14 06:03:35;;;;;;;11.32;4.13;;;15.70;99.90;;;;;;5047634;28;20060;-55
2023/06/14 06:06:03;;;;;;;16.00;4.65;;;15.80;99.90;;;;;;5047994;28;20049;-57
2023/06/14 06:08:29;;;;;;;12.10;4.53;;;15.90;99.90;;;;;;5047503;28;20095;-51
2023/06/14 06:10:56;;;;;;;18.02;4.57;;;16.00;99.90;;;;;;5048279;28;20049;-54
2023/06/14 06:13:23;;;;;;;20.95;6.70;;;16.10;99.90;;;;;;5048532;28;20049;-55
2023/06/14 06:15:50;;;;;;;14.15;5.07;;;16.10;99.90;;;;;;5048096;28;20047;-55
2023/06/14 06:18:17;;;;;;;7.68;4.30;;;16.10;99.90;;;;;;5047526;28;20423;-52
2023/06/14 06:20:45;;;;;;;14.25;5.53;;;16.10;99.90;;;;;;5047406;28;20385;-55
2023/06/14 06:23:11;;;;;;;19.42;5.65;;;16.20;99.90;;;;;;5047330;28;20055;-55
2023/06/14 06:25:38;;;;;;;16.95;4.32;;;16.20;99.90;;;;;;5047687;28;20060;-56
2023/06/14 06:28:05;;;;;;;20.25;5.10;;;16.30;99.90;;;;;;5048368;28;20072;-54
2023/06/14 06:30:33;;;;;;;16.00;4.78;;;16.40;99.90;;;;;;5047595;28;20132;-53
2023/06/14 06:33:00;;;;;;;14.45;5.13;;;16.40;99.90;;;;;;5047143;28;20056;-56
2023/06/14 06:35:27;;;;;;;13.43;4.63;;;16.50;99.90;;;;;;5047236;28;20114;-55
2023/06/14 06:37:54;;;;;;;17.45;4.95;;;16.50;99.90;;;;;;5047019;28;20057;-56
2023/06/14 06:40:21;;;;;;;18.05;5.00;;;16.60;99.90;;;;;;5047106;28;20045;-53
2023/06/14 06:42:48;;;;;;;18.42;4.90;;;16.60;99.90;;;;;;5047135;28;20055;-51
2023/06/14 06:45:14;;;;;;;15.82;6.97;;;16.70;99.90;;;;;;5046178;28;20053;-49
2023/06/14 06:47:42;;;;;;;14.38;4.97;;;16.80;99.90;;;;;;4703524;28;10000913;-51
2023/06/14 06:50:09;;;;;;;17.58;5.63;;;16.70;99.90;;;;;;5081289;28;20071;-52
2023/06/14 06:52:36;;;;;;;25.90;5.03;;;16.90;99.90;;;;;;5074368;28;20056;-56
2023/06/14 06:55:03;;;;;;;17.50;5.28;;;16.90;99.90;;;;;;5082277;28;20100;-55
2023/06/14 06:57:30;;;;;;;15.05;5.70;;;16.90;99.90;;;;;;5083016;28;20114;-54
2023/06/14 06:59:57;;;;;;;18.55;4.53;;;16.90;99.90;;;;;;5070108;28;20059;-55
2023/06/14 07:02:24;;;;;;;14.73;5.22;;;17.00;99.90;;;;;;5072653;28;20533;-56
2023/06/14 07:04:53;;;;;;;28.40;5.82;;;17.10;99.90;;;;;;5080826;28;20812;-52
2023/06/14 07:07:20;;;;;;;14.63;5.63;;;17.10;99.90;;;;;;5061103;28;20059;-53
2023/06/14 07:09:47;;;;;;;15.70;5.20;;;17.20;99.90;;;;;;5027252;28;20045;-53
2023/06/14 07:12:14;;;;;;;25.02;4.95;;;17.30;99.90;;;;;;5043302;28;20064;-55
2023/06/14 07:14:41;;;;;;;18.48;6.05;;;17.40;99.90;;;;;;5043490;28;20053;-55
2023/06/14 07:17:08;;;;;;;19.25;5.32;;;17.50;99.90;;;;;;5042452;28;20552;-57
2023/06/14 07:19:36;;;;;;;17.77;4.95;;;17.50;99.90;;;;;;5043011;28;20080;-55
2023/06/14 07:22:03;;;;;;;18.17;4.97;;;17.60;99.90;;;;;;4990180;28;20054;-53
2023/06/14 07:24:30;;;;;;;15.75;4.55;;;17.60;99.90;;;;;;5007095;28;20421;-54
2023/06/14 07:26:57;;;;;;;15.30;5.60;;;17.70;99.90;;;;;;5006479;28;20045;-54
2023/06/14 07:29:24;;;;;;;11.88;4.72;;;17.80;99.90;;;;;;5007624;28;20060;-51
2023/06/14 07:31:50;;;;;;;19.45;5.28;;;17.90;99.90;;;;;;5009870;28;20421;-53
2023/06/14 07:34:17;;;;;;;31.65;6.93;;;17.90;99.90;;;;;;5011139;28;20054;-53
2023/06/14 07:36:44;;;;;;;16.55;5.50;;;18.00;99.90;;;;;;5009333;28;20037;-52
2023/06/14 07:39:11;;;;;;;20.17;5.53;;;18.10;99.90;;;;;;5010270;28;20417;-54
2023/06/14 07:41:38;;;;;;;14.50;5.22;;;18.10;99.90;;;;;;5010823;28;20074;-53
2023/06/14 07:44:05;;;;;;;18.63;5.75;;;18.20;99.90;;;;;;4991944;28;20042;-52
2023/06/14 07:46:34;;;;;;;11.30;6.05;;;18.30;99.90;;;;;;5011127;28;20104;-53
2023/06/14 07:49:01;;;;;;;15.05;5.03;;;18.30;99.90;;;;;;5010822;28;20042;-54
2023/06/14 07:51:28;;;;;;;22.15;6.60;;;18.30;99.90;;;;;;5010907;28;20045;-54
2023/06/14 07:53:56;;;;;;;26.52;5.35;;;18.40;99.90;;;;;;5009463;28;20064;-53
2023/06/14 07:56:23;;;;;;;12.35;4.85;;;18.50;99.90;;;;;;5010293;28;20117;-56
2023/06/14 07:58:49;;;;;;;22.00;5.85;;;18.50;99.90;;;;;;5014129;28;20496;-55
2023/06/14 08:01:16;;;;;;;14.13;4.82;;;18.60;99.90;;;;;;5031287;28;20061;-52
2023/06/14 08:03:43;;;;;;;16.15;5.20;;;18.70;99.90;;;;;;4995284;28;20180;-53
2023/06/14 08:06:11;;;;;;;27.35;6.10;;;18.70;99.90;;;;;;4996073;28;20153;-55
2023/06/14 08:08:38;;;;;;;24.63;6.05;;;18.80;99.90;;;;;;5009565;28;20045;-55
2023/06/14 08:11:05;;;;;;;17.90;5.20;;;18.90;99.90;;;;;;5003452;28;20086;-56
2023/06/14 08:13:31;;;;;;;14.43;5.40;;;19.00;99.90;;;;;;5010371;28;20056;-54
2023/06/14 08:16:00;;;;;;;21.02;6.22;;;19.10;99.90;;;;;;5010797;28;20049;-55
2023/06/14 08:18:27;;;;;;;21.33;7.18;;;19.20;99.90;;;;;;4996761;28;20046;-56
2023/06/14 08:20:54;;;;;;;18.95;7.00;;;19.30;99.90;;;;;;4999192;28;20046;-56
2023/06/14 08:23:21;;;;;;;18.70;6.75;;;19.40;99.90;;;;;;5009080;28;20496;-57
2023/06/14 08:25:48;;;;;;;20.80;6.57;;;19.50;99.90;;;;;;5011647;28;20046;-57
2023/06/14 08:28:15;;;;;;;17.15;6.45;;;19.60;99.90;;;;;;5021931;28;20046;-55
2023/06/14 08:30:42;;;;;;;17.65;5.90;;;19.60;99.90;;;;;;5010842;28;20050;-57
2023/06/14 08:33:09;;;;;;;26.77;5.95;;;19.70;99.90;;;;;;5004129;28;20125;-56
2023/06/14 08:35:43;;;;;;;13.30;6.40;;;19.70;99.90;;;;;;5013459;28;20088;-58
2023/06/14 08:38:10;;;;;;;14.35;6.78;;;19.80;99.90;;;;;;5010197;28;20046;-55
2023/06/14 08:40:38;;;;;;;19.25;6.32;;;19.90;99.90;;;;;;5011146;28;20064;-56
2023/06/14 08:43:05;;;;;;;17.52;5.95;;;20.00;99.90;;;;;;4995655;28;20054;-52
2023/06/14 08:45:32;;;;;;;17.48;5.32;;;20.10;99.90;;;;;;5019645;28;20111;-56
2023/06/14 08:47:59;;;;;;;17.63;5.15;;;20.10;99.90;;;;;;4673972;28;10000252;-53
2023/06/14 08:50:29;;;;;;;19.90;6.57;;;20.20;99.90;;;;;;5001699;28;20062;-57
2023/06/14 08:53:02;;;;;;;18.13;5.85;;;20.20;99.90;;;;;;5012120;28;20104;-56
2023/06/14 08:55:30;;;;;;;21.30;6.00;;;20.30;99.90;;;;;;4994965;28;20422;-57
2023/06/14 08:58:03;;;;;;;15.85;5.47;;;20.30;99.90;;;;;;5013138;28;20050;-55
2023/06/14 09:00:32;;;;;;;20.40;6.85;;;20.40;99.90;;;;;;5009921;28;20068;-56
2023/06/14 09:03:00;;;;;;;21.00;5.82;;;20.50;99.90;;;;;;4988506;28;20049;-55
2023/06/14 09:05:27;;;;;;;22.42;6.57;;;20.60;99.90;;;;;;5010381;28;20701;-55
2023/06/14 09:07:55;;;;;;;15.80;5.32;;;20.60;99.90;;;;;;5009931;28;20485;-58
2023/06/14 09:10:22;;;;;;;18.05;5.05;;;20.70;99.90;;;;;;5010055;28;20065;-57
2023/06/14 09:12:49;;;;;;;25.60;5.78;;;20.90;99.90;;;;;;5010325;28;20077;-55
2023/06/14 09:15:16;;;;;;;14.50;5.45;;;21.00;99.90;;;;;;4996333;28;20053;-56
2023/06/14 09:17:43;;;;;;;14.85;5.68;;;21.10;99.90;;;;;;5019653;28;20132;-51
2023/06/14 09:20:13;;;;;;;22.10;5.85;;;21.20;99.90;;;;;;5021283;28;20068;-56
2023/06/14 09:22:41;;;;;;;14.82;6.00;;;21.40;99.90;;;;;;5010262;28;20054;-54
2023/06/14 09:25:08;;;;;;;14.15;5.28;;;21.50;99.90;;;;;;5010182;28;20523;-58
2023/06/14 09:27:40;;;;;;;23.38;5.88;;;21.60;99.90;;;;;;5017845;28;20720;-55
2023/06/14 09:30:09;;;;;;;16.33;5.45;;;21.70;99.90;;;;;;5003555;28;20060;-53
2023/06/14 09:32:38;;;;;;;13.98;6.00;;;21.70;99.90;;;;;;5003389;28;20145;-57
2023/06/14 09:35:06;;;;;;;15.77;6.53;;;21.80;99.90;;;;;;4992106;28;20057;-56
2023/06/14 09:37:34;;;;;;;14.00;5.32;;;22.00;99.90;;;;;;4993830;28;20038;-54
2023/06/14 09:40:01;;;;;;;16.30;5.70;;;22.10;99.90;;;;;;4997992;28;20068;-54
2023/06/14 09:42:28;;;;;;;18.73;6.13;;;22.10;99.90;;;;;;5003890;28;20639;-55
2023/06/14 09:44:56;;;;;;;22.02;4.90;;;22.20;99.90;;;;;;4998690;28;20050;-57
2023/06/14 09:47:24;;;;;;;17.48;5.90;;;22.30;99.90;;;;;;5004333;28;20056;-57
2023/06/14 09:49:51;;;;;;;19.85;5.60;;;22.40;99.90;;;;;;5009361;28;20064;-57
2023/06/14 09:52:19;;;;;;;15.57;5.80;;;22.60;99.90;;;;;;5018164;28;20057;-56
2023/06/14 09:54:47;;;;;;;17.25;6.13;;;22.70;99.90;;;;;;5009862;28;20053;-57
2023/06/14 09:57:15;;;;;;;21.10;6.75;;;22.70;99.90;;;;;;5015441;28;20080;-57
2023/06/14 09:59:48;;;;;;;20.33;6.05;;;22.80;99.90;;;;;;5006393;28;20061;-55
2023/06/14 10:02:27;;;;;;;15.50;6.57;;;22.90;99.90;;;;;;5008020;28;20884;-57
2023/06/14 10:05:06;;;;;;;16.50;5.72;;;23.10;99.90;;;;;;5020945;28;20042;-58
2023/06/14 10:07:40;;;;;;;12.60;5.35;;;23.20;99.90;;;;;;5013351;28;20045;-56
2023/06/14 10:10:07;;;;;;;17.35;5.40;;;23.40;99.90;;;;;;4990237;28;20053;-57
2023/06/14 10:12:34;;;;;;;20.05;5.93;;;23.70;99.90;;;;;;4989731;28;20054;-55
2023/06/14 10:15:02;;;;;;;21.50;6.18;;;24.00;99.90;;;;;;5004035;28;20046;-57
2023/06/14 10:17:32;;;;;;;15.68;5.07;;;24.40;99.90;;;;;;4994696;28;20054;-57
2023/06/14 10:20:33;;;;;;;13.80;5.18;;;24.70;99.70;;;;;;5009879;28;20132;-57
2023/06/14 10:23:20;;;;;;;16.83;5.25;;;25.10;99.30;;;;;;4990334;28;20497;-55
2023/06/14 10:25:50;;;;;;;13.20;4.82;;;25.50;97.50;;;;;;4986607;28;20050;-57
2023/06/14 10:28:24;;;;;;;15.68;5.60;;;25.90;98.10;;;;;;5009514;28;20058;-57
2023/06/14 10:31:10;;;;;;;18.85;6.50;;;26.00;97.40;;;;;;5006992;28;20041;-57
2023/06/14 10:33:51;;;;;;;11.93;4.82;;;26.30;95.00;;;;;;5002357;28;20128;-57
2023/06/14 10:36:32;;;;;;;18.42;6.13;;;26.50;93.40;;;;;;5006382;28;20049;-58
2023/06/14 10:39:08;;;;;;;19.60;5.30;;;26.70;93.80;;;;;;5005992;28;20056;-58
2023/06/14 10:41:36;;;;;;;10.75;4.68;;;27.00;94.70;;;;;;4986790;28;20045;-58
2023/06/14 10:44:21;;;;;;;11.50;4.60;;;27.30;94.00;;;;;;5014605;28;20042;-58
2023/06/14 10:46:54;;;;;;;13.18;6.32;;;27.40;92.30;;;;;;5013931;28;20073;-57
2023/06/14 10:49:42;;;;;;;;;;;27.60;91.50;;;;;;5005137;28;20425;-58
2023/06/14 10:52:20;;;;;;;12.02;5.50;;;27.60;90.10;;;;;;5006462;28;19921;-58
2023/06/14 10:55:06;;;;;;;9.40;4.88;;;27.70;91.70;;;;;;5005348;28;20108;-56
2023/06/14 10:57:33;;;;;;;14.13;4.20;;;27.40;90.30;;;;;;4988146;28;20050;-58
2023/06/14 11:00:16;;;;;;;19.45;4.82;;;27.20;91.50;;;;;;5002588;28;20119;-58
2023/06/14 11:03:03;;;;;;;21.67;5.20;;;27.00;91.50;;;;;;5007023;28;20057;-57
2023/06/14 11:05:30;;;;;;;12.25;5.00;;;26.80;91.30;;;;;;5007171;28;20080;-57
2023/06/14 11:08:01;;;;;;;15.38;4.80;;;26.60;91.00;;;;;;5009142;28;20042;-55
2023/06/14 11:10:39;;;;;;;29.27;6.82;;;26.30;91.30;;;;;;5006299;28;20053;-57
2023/06/14 11:13:06;;;;;;;9.20;4.50;;;26.20;91.00;;;;;;5006376;28;20042;-57
2023/06/14 11:15:34;;;;;;;13.73;4.57;;;26.10;91.30;;;;;;4995564;28;20124;-56
2023/06/14 11:18:04;;;;;;;12.77;5.28;;;26.10;91.30;;;;;;5007483;28;20073;-54
2023/06/14 11:20:33;;;;;;;18.55;5.95;;;26.10;91.80;;;;;;5011719;28;20061;-58
2023/06/14 11:23:00;;;;;;;18.48;5.60;;;26.10;91.40;;;;;;5016512;28;20045;-55
2023/06/14 11:25:30;;;;;;;16.88;5.40;;;26.10;90.90;;;;;;5007256;28;20057;-57
2023/06/14 11:27:57;;;;;;;20.55;5.60;;;26.00;91.00;;;;;;5006321;28;20037;-57
2023/06/14 11:30:25;;;;;;;11.57;4.68;;;25.90;90.80;;;;;;5005995;28;20050;-56
2023/06/14 11:32:53;;;;;;;13.85;5.35;;;25.90;91.50;;;;;;5006580;28;20985;-56
2023/06/14 11:35:25;;;;;;;14.40;5.07;;;25.90;91.40;;;;;;5003872;28;20053;-57
2023/06/14 11:37:58;;;;;;;13.85;5.90;;;26.00;91.70;;;;;;5007385;28;20127;-54
2023/06/14 11:40:25;;;;;;;15.55;5.50;;;26.10;91.00;;;;;;4996926;28;20057;-57
2023/06/14 11:42:59;;;;;;;12.07;5.20;;;26.10;91.00;;;;;;5006885;28;20479;-56
2023/06/14 11:45:26;;;;;;;17.85;5.82;;;26.20;90.00;;;;;;5000816;28;20062;-57
2023/06/14 11:47:57;;;;;;;22.23;5.88;;;26.20;90.90;;;;;;5006866;28;20108;-57
2023/06/14 11:50:25;;;;;;;19.52;5.38;;;26.20;90.90;;;;;;5002545;28;20568;-56
2023/06/14 11:52:56;;;;;;;12.57;4.68;;;26.30;90.80;;;;;;5006394;28;20042;-54
2023/06/14 11:55:23;;;;;;;21.45;5.35;;;26.40;90.40;;;;;;5005474;28;20626;-55
2023/06/14 11:57:50;;;;;;;15.15;6.13;;;26.40;90.60;;;;;;5005939;28;20054;-57
2023/06/14 12:00:17;;;;;;;19.00;5.85;;;26.50;90.60;;;;;;5004095;28;20081;-57
2023/06/14 12:02:53;;;;;;;25.98;6.32;;;26.50;90.70;;;;;;4981628;28;20049;-56
2023/06/14 12:05:21;;;;;;;15.13;4.70;;;26.50;90.30;;;;;;5004781;28;20038;-56
2023/06/14 12:07:48;;;;;;;9.70;4.53;;;26.60;90.40;;;;;;5004600;28;20572;-56
2023/06/14 12:10:15;;;;;;;12.77;5.55;;;26.60;90.70;;;;;;4993764;28;20961;-56
2023/06/14 12:12:42;;;;;;;14.35;4.93;;;26.60;90.40;;;;;;5005172;28;20373;-57
2023/06/14 12:15:11;;;;;;;18.98;5.20;;;26.60;90.60;;;;;;5005688;28;20403;-57
2023/06/14 12:17:42;;;;;;;57.20;7.15;;;26.70;90.20;;;;;;5008853;28;20042;-57
2023/06/14 12:20:13;;;;;;;14.23;4.88;;;26.70;90.20;;;;;;4995265;28;20383;-56
2023/06/14 12:22:53;;;;;;;23.58;5.68;;;26.60;90.50;;;;;;5010464;28;20045;-55
2023/06/14 12:25:38;;;;;;;21.00;5.82;;;26.70;89.10;;;;;;5010315;28;20078;-56
2023/06/14 12:28:08;;;;;;;20.20;5.20;;;26.80;90.20;;;;;;5010125;28;20050;-56
2023/06/14 12:30:36;;;;;;;14.95;6.15;;;27.00;90.00;;;;;;5010153;28;20058;-58
2023/06/14 12:33:03;;;;;;;15.55;4.57;;;27.00;89.60;;;;;;5009741;28;20064;-56
2023/06/14 12:35:30;;;;;;;10.63;3.88;;;26.90;89.30;;;;;;5010341;28;20404;-57
2023/06/14 12:37:57;;;;;;;17.15;4.65;;;27.00;88.00;;;;;;5009765;28;20045;-56
2023/06/14 12:40:24;;;;;;;13.32;4.32;;;27.00;87.30;;;;;;5009984;28;20058;-58
2023/06/14 12:42:51;;;;;;;12.40;4.38;;;27.10;86.00;;;;;;4996751;28;20045;-56
2023/06/14 12:45:18;;;;;;;17.23;5.93;;;27.10;83.70;;;;;;5008238;28;20065;-55
2023/06/14 12:47:45;;;;;;;12.05;4.45;;;27.10;82.80;;;;;;5000058;28;20061;-56